Time;durP1;ratioP1;P1;durP2;ratioP2;P2;SDS_P1;SDS_P2;PMS_P1;PMS_P2;Temp;Humidity;BMP_temperature;BMP_pressure;BME280_temperature;BME280_humidity;BME280_pressure;Samples;Min_cycle;Max_cycle;Signal;HPM_P1;HPM_P2
2023/09/20 00:00:38;;;;;;;;;0.67;0.00;;;;;20.21;64.28;100923.22;5076603;27;65397;-58
2023/09/20 00:03:04;;;;;;;;;2.00;0.00;;;;;20.15;64.00;100912.97;5086897;27;59378;-58
2023/09/20 00:05:29;;;;;;;;;0.00;0.00;;;;;20.13;64.02;100913.09;5088363;27;45427;-58
2023/09/20 00:07:54;;;;;;;;;0.00;0.00;;;;;20.11;64.42;100914.22;5086707;27;71378;-58
2023/09/20 00:10:21;;;;;;;;;1.00;0.00;;;;;20.09;64.71;100911.66;5080774;28;64348;-58
2023/09/20 00:12:46;;;;;;;;;0.00;0.00;;;;;20.08;64.90;100912.66;5090805;27;45570;-58
2023/09/20 00:15:12;;;;;;;;;0.00;0.00;;;;;20.07;65.75;100910.09;5092145;27;72131;-58
2023/09/20 00:17:38;;;;;;;;;0.00;0.00;;;;;20.06;65.40;100908.38;5082972;27;45300;-58
2023/09/20 00:20:06;;;;;;;;;0.00;0.00;;;;;20.06;66.01;100908.38;5092639;27;46884;-58
2023/09/20 00:22:31;;;;;;;;;0.00;0.00;;;;;20.06;64.95;100914.63;5088727;27;45278;-57
2023/09/20 00:24:58;;;;;;;;;0.00;0.00;;;;;20.05;65.78;100909.38;5087568;27;46323;-58
2023/09/20 00:27:24;;;;;;;;;0.00;0.00;;;;;20.06;65.19;100909.22;5082397;27;45406;-58
2023/09/20 00:29:49;;;;;;;;;0.00;0.00;;;;;20.07;65.67;100913.63;5085611;27;67219;-57
2023/09/20 00:32:14;;;;;;;;;0.00;0.00;;;;;20.07;65.99;100910.09;5087580;27;64133;-57
2023/09/20 00:34:40;;;;;;;;;0.00;0.00;;;;;20.05;65.97;100914.75;5081120;27;74327;-57
2023/09/20 00:37:05;;;;;;;;;0.75;0.75;;;;;20.03;66.68;100904.09;5090035;27;45495;-57
2023/09/20 00:39:31;;;;;;;;;1.00;0.00;;;;;20.00;67.25;100899.00;5083442;27;62483;-57
2023/09/20 00:41:57;;;;;;;;;0.00;0.00;;;;;19.98;66.94;100901.78;5083483;27;67218;-57
2023/09/20 00:44:25;;;;;;;;;0.00;0.00;;;;;19.96;66.79;100895.69;5084411;27;46256;-57
2023/09/20 00:46:51;;;;;;;;;0.00;0.00;;;;;19.96;67.55;100900.25;5082367;27;45364;-58
2023/09/20 00:49:17;;;;;;;;;2.00;0.00;;;;;19.95;67.23;100882.34;5064565;28;45430;-58
2023/09/20 00:51:45;;;;;;;;;1.00;0.00;;;;;19.94;67.33;100886.03;5093190;27;45679;-58
2023/09/20 00:54:11;;;;;;;;;0.00;0.00;;;;;19.94;67.45;100880.63;5090765;27;47104;-58
2023/09/20 00:56:37;;;;;;;;;1.33;0.00;;;;;19.89;67.85;100885.56;5075239;27;45633;-58
2023/09/20 00:59:06;;;;;;;;;0.00;0.00;;;;;19.86;67.52;100881.31;5059909;27;45330;-58
2023/09/20 01:01:33;;;;;;;;;0.00;0.00;;;;;19.86;68.00;100875.91;5094177;27;45313;-58
2023/09/20 01:03:59;;;;;;;;;0.00;0.00;;;;;19.85;67.86;100874.19;5076335;27;46985;-58
2023/09/20 01:06:27;;;;;;;;;0.00;0.00;;;;;19.85;68.22;100870.66;5087397;27;45268;-58
2023/09/20 01:08:54;;;;;;;;;0.00;0.00;;;;;19.82;67.35;100875.31;5096331;27;45595;-58
2023/09/20 01:11:19;;;;;;;;;0.00;0.00;;;;;19.78;68.28;100870.31;5101529;27;45382;-58
2023/09/20 01:13:45;;;;;;;;;0.00;0.00;;;;;19.74;70.06;100876.97;5099630;27;47046;-58
2023/09/20 01:16:14;;;;;;;;;2.00;1.00;;;;;19.69;68.12;100882.75;5062442;28;45394;-59
2023/09/20 01:18:39;;;;;;;;;1.00;1.00;;;;;19.67;67.85;100884.72;5091440;27;45525;-58
2023/09/20 01:21:05;;;;;;;;;0.67;0.67;;;;;19.65;68.59;100881.31;5088611;27;47617;-58
2023/09/20 01:23:32;;;;;;;;;0.00;0.00;;;;;19.60;68.69;100868.22;5090955;27;46004;-58
2023/09/20 01:25:59;;;;;;;;;0.00;0.00;;;;;19.55;68.83;100870.47;5096751;27;45370;-58
2023/09/20 01:28:28;;;;;;;;;0.00;0.00;;;;;19.53;69.56;100869.75;5066078;28;45342;-58
2023/09/20 01:30:58;;;;;;;;;1.00;0.00;;;;;19.52;70.12;100870.75;5089847;27;45354;-58
2023/09/20 01:33:24;;;;;;;;;3.00;0.00;;;;;19.50;69.73;100873.56;5087034;27;45439;-57
2023/09/20 01:35:49;;;;;;;;;0.00;0.00;;;;;19.49;69.67;100865.63;5090954;27;45385;-57
2023/09/20 01:38:15;;;;;;;;;1.00;0.00;;;;;19.46;69.92;100857.78;5088160;27;67814;-58
2023/09/20 01:40:40;;;;;;;;;0.25;0.25;;;;;19.44;70.13;100865.16;5088343;27;45482;-58
2023/09/20 01:43:08;;;;;;;;;0.00;0.00;;;;;19.40;69.62;100856.47;5091235;27;72064;-58
2023/09/20 01:45:35;;;;;;;;;0.67;0.00;;;;;19.39;71.72;100859.31;5092726;27;45255;-58
2023/09/20 01:48:05;;;;;;;;;0.00;0.00;;;;;19.33;71.65;100864.25;5099227;27;45346;-58
2023/09/20 01:50:30;;;;;;;;;1.67;1.00;;;;;19.26;73.03;100860.34;5092058;27;45509;-58
2023/09/20 01:52:57;;;;;;;;;1.75;1.00;;;;;19.23;71.75;100855.25;5086682;27;66593;-58
2023/09/20 01:55:24;;;;;;;;;0.00;0.00;;;;;19.22;72.03;100858.91;5084103;27;45356;-58
2023/09/20 01:58:05;;;;;;;;;1.00;0.00;;;;;19.23;72.64;100865.16;5090150;27;45295;-58
2023/09/20 02:00:36;;;;;;;;;1.33;1.33;;;;;19.16;73.28;100857.63;5095564;27;45391;-57
2023/09/20 02:03:08;;;;;;;;;0.00;0.00;;;;;19.11;72.55;100846.38;5094115;27;47055;-58
2023/09/20 02:05:34;;;;;;;;;0.33;0.33;;;;;19.09;73.75;100845.63;5090160;27;45502;-58
2023/09/20 02:07:59;;;;;;;;;1.00;1.00;;;;;19.07;72.60;100852.13;5088751;27;45280;-58
2023/09/20 02:10:24;;;;;;;;;0.00;0.00;;;;;19.07;73.70;100852.13;5088461;27;61366;-58
2023/09/20 02:12:51;;;;;;;;;0.00;0.00;;;;;19.05;72.56;100837.94;5085521;27;72277;-57
2023/09/20 02:15:21;;;;;;;;;0.00;0.00;;;;;19.00;74.56;100836.47;5081389;27;45310;-58
2023/09/20 02:17:47;;;;;;;;;1.00;1.00;;;;;18.96;73.99;100835.03;5088935;27;45358;-58
2023/09/20 02:20:19;;;;;;;;;0.00;0.00;;;;;18.93;74.93;100834.44;5088027;27;60679;-58
2023/09/20 02:22:48;;;;;;;;;0.00;0.00;;;;;18.87;75.71;100825.00;5090460;27;46618;-57
2023/09/20 02:25:14;;;;;;;;;1.00;0.67;;;;;18.78;76.62;100832.03;5069495;27;45189;-58
2023/09/20 02:27:41;;;;;;;;;0.00;0.00;;;;;18.74;75.70;100830.56;5088104;27;45438;-57
2023/09/20 02:30:09;;;;;;;;;0.00;0.00;;;;;18.69;75.88;100832.81;5085410;27;45644;-58
2023/09/20 02:32:35;;;;;;;;;0.00;0.00;;;;;18.69;75.64;100822.03;5084803;27;46173;-57
2023/09/20 02:35:03;;;;;;;;;1.33;0.00;;;;;18.65;77.25;100818.72;5091765;27;45748;-58
2023/09/20 02:37:29;;;;;;;;;0.00;0.00;;;;;18.62;77.44;100819.00;5086262;27;45370;-58
2023/09/20 02:39:54;;;;;;;;;0.00;0.00;;;;;18.61;75.99;100824.53;5100362;27;45429;-58
2023/09/20 02:42:22;;;;;;;;;0.33;0.33;;;;;18.57;77.80;100817.69;5090342;27;74564;-57
2023/09/20 02:44:51;;;;;;;;;1.00;1.00;;;;;18.55;77.62;100830.41;5085151;27;45501;-58
2023/09/20 02:47:18;;;;;;;;;0.00;0.00;;;;;18.55;75.14;100823.19;5088787;27;45419;-57
2023/09/20 02:49:44;;;;;;;;;0.00;0.00;;;;;18.51;77.04;100819.91;5083251;27;45277;-58
2023/09/20 02:52:09;;;;;;;;;0.00;0.00;;;;;18.49;77.84;100821.84;5084459;27;46110;-58
2023/09/20 02:54:35;;;;;;;;;0.00;0.00;;;;;18.48;77.25;100824.69;5098026;27;45225;-57
2023/09/20 02:57:00;;;;;;;;;2.00;0.00;;;;;18.46;78.08;100829.31;5090256;27;66662;-58
2023/09/20 02:59:25;;;;;;;;;1.33;0.33;;;;;18.42;79.11;100826.06;5097929;27;52890;-58
2023/09/20 03:01:51;;;;;;;;;0.00;0.00;;;;;18.37;79.31;100817.50;5086500;27;45604;-58
2023/09/20 03:04:16;;;;;;;;;0.33;0.00;;;;;18.35;78.82;100809.56;5090651;27;65420;-58
2023/09/20 03:06:44;;;;;;;;;0.00;0.00;;;;;18.38;78.62;100802.19;5085876;27;67353;-58
2023/09/20 03:09:10;;;;;;;;;0.00;0.00;;;;;18.37;79.05;100806.72;5082256;27;45602;-58
2023/09/20 03:11:37;;;;;;;;;0.00;0.00;;;;;18.35;79.64;100800.59;5082912;27;46135;-58
2023/09/20 03:14:03;;;;;;;;;0.00;0.00;;;;;18.35;77.92;100797.91;5096491;27;45834;-58
2023/09/20 03:16:28;;;;;;;;;0.00;0.00;;;;;18.34;78.68;100797.06;5094083;27;45364;-58
2023/09/20 03:18:54;;;;;;;;;0.00;0.00;;;;;18.37;77.90;100792.41;5080646;27;58929;-58
2023/09/20 03:21:20;;;;;;;;;1.00;1.00;;;;;18.39;79.17;100793.13;5088087;27;46379;-58
2023/09/20 03:23:45;;;;;;;;;0.00;0.00;;;;;18.39;78.36;100787.75;5097181;27;45443;-58
2023/09/20 03:26:12;;;;;;;;;0.00;0.00;;;;;18.35;79.25;100781.75;5089785;27;46430;-58
2023/09/20 03:28:37;;;;;;;;;1.00;0.00;;;;;18.37;78.80;100784.31;5090268;27;45665;-58
2023/09/20 03:31:05;;;;;;;;;0.00;0.00;;;;;18.35;78.72;100788.03;5080125;27;57486;-58
2023/09/20 03:33:31;;;;;;;;;0.00;0.00;;;;;18.35;79.11;100782.63;5095043;27;45331;-58
2023/09/20 03:35:57;;;;;;;;;0.67;0.00;;;;;18.37;78.77;100776.25;5088673;27;46486;-58
2023/09/20 03:38:22;;;;;;;;;0.00;0.00;;;;;18.39;79.79;100771.59;5086241;27;45796;-58
2023/09/20 03:40:48;;;;;;;;;0.00;0.00;;;;;18.40;79.87;100771.47;5099324;27;46247;-58
2023/09/20 03:43:13;;;;;;;;;0.00;0.00;;;;;18.38;80.39;100769.88;5090202;27;71910;-58
2023/09/20 03:45:39;;;;;;;;;0.00;0.00;;;;;18.35;79.79;100765.59;5091623;27;45423;-58
2023/09/20 03:48:05;;;;;;;;;0.00;0.00;;;;;18.34;80.12;100767.47;5095592;27;45416;-58
2023/09/20 03:50:31;;;;;;;;;0.00;0.00;;;;;18.33;79.76;100751.44;5087580;27;45942;-58
2023/09/20 03:52:56;;;;;;;;;0.00;0.00;;;;;18.33;80.07;100751.44;5088959;27;49307;-58
2023/09/20 03:55:23;;;;;;;;;0.67;0.67;;;;;18.34;79.29;100745.03;5087050;27;58917;-58
2023/09/20 03:57:51;;;;;;;;;0.00;0.00;;;;;18.35;81.84;100753.03;5089697;27;45885;-58
2023/09/20 04:00:25;;;;;;;;;2.00;0.33;;;;;18.35;80.63;100741.38;5097112;27;47185;-58
2023/09/20 04:02:53;;;;;;;;;0.00;0.00;;;;;18.37;79.62;100743.94;5086977;27;45551;-58
2023/09/20 04:05:19;;;;;;;;;0.00;0.00;;;;;18.34;81.21;100742.34;5088442;27;45667;-58
2023/09/20 04:07:47;;;;;;;;;1.00;1.00;;;;;18.35;81.37;100744.06;5088971;27;45810;-58
2023/09/20 04:10:15;;;;;;;;;2.33;0.00;;;;;18.32;80.97;100739.78;5078361;27;47013;-58
2023/09/20 04:12:41;;;;;;;;;0.00;0.00;;;;;18.30;82.40;100740.91;5091859;27;45319;-58
2023/09/20 04:15:07;;;;;;;;;0.00;0.00;;;;;18.28;82.65;100732.13;5091009;27;53384;-58
2023/09/20 04:17:34;;;;;;;;;0.67;0.67;;;;;18.27;81.65;100727.72;5085279;27;46646;-58
2023/09/20 04:20:05;;;;;;;;;0.00;0.00;;;;;18.26;83.25;100724.16;5078383;27;47238;-58
2023/09/20 04:22:32;;;;;;;;;0.00;0.00;;;;;18.26;81.79;100728.69;5089319;27;45346;-58
2023/09/20 04:24:58;;;;;;;;;0.00;0.00;;;;;18.28;81.33;100724.88;5082683;27;45339;-58
2023/09/20 04:27:23;;;;;;;;;0.00;0.00;;;;;18.29;82.80;100723.03;5094385;27;45600;-58
2023/09/20 04:29:49;;;;;;;;;0.00;0.00;;;;;18.30;81.21;100719.38;5084761;27;71516;-58
2023/09/20 04:32:15;;;;;;;;;0.00;0.00;;;;;18.25;84.27;100713.50;5090639;27;45294;-58
2023/09/20 04:34:40;;;;;;;;;1.00;1.00;;;;;18.24;83.62;100711.81;5091429;27;45422;-58
2023/09/20 04:37:06;;;;;;;;;0.00;0.00;;;;;18.23;82.88;100694.81;5081725;27;67774;-58
2023/09/20 04:39:31;;;;;;;;;0.33;0.33;;;;;18.22;83.38;100690.41;5089168;27;46011;-58
2023/09/20 04:41:57;;;;;;;;;0.00;0.00;;;;;18.22;82.44;100694.94;5086642;27;68761;-58
2023/09/20 04:44:23;;;;;;;;;0.00;0.00;;;;;18.20;83.88;100703.16;5085712;27;45789;-57
2023/09/20 04:46:48;;;;;;;;;2.00;0.00;;;;;18.15;84.72;100700.84;5085714;27;46664;-59
2023/09/20 04:49:14;;;;;;;;;0.00;0.00;;;;;18.11;83.94;100702.06;5061152;28;46980;-56
2023/09/20 04:51:40;;;;;;;;;0.00;0.00;;;;;18.09;83.48;100695.13;5079633;27;45394;-56
2023/09/20 04:54:07;;;;;;;;;1.00;1.00;;;;;18.09;82.84;100693.25;5078592;27;45609;-56
2023/09/20 04:56:33;;;;;;;;;0.00;0.00;;;;;18.11;83.24;100691.31;5081706;27;45417;-56
2023/09/20 04:58:58;;;;;;;;;0.67;0.00;;;;;18.13;84.47;100691.19;5080529;27;71858;-56
2023/09/20 05:01:24;;;;;;;;;0.67;0.67;;;;;18.12;84.71;100689.47;5081335;27;69491;-56
2023/09/20 05:03:50;;;;;;;;;0.00;0.00;;;;;18.11;83.82;100694.00;5089329;27;45547;-56
2023/09/20 05:06:18;;;;;;;;;4.00;0.00;;;;;18.09;83.76;100687.03;5088181;27;45608;-57
2023/09/20 05:08:44;;;;;;;;;0.00;0.00;;;;;18.08;84.15;100688.00;5081847;27;46225;-55
2023/09/20 05:11:10;;;;;;;;;1.67;0.00;;;;;18.06;85.60;100692.69;5091236;27;45520;-56
2023/09/20 05:13:36;;;;;;;;;0.00;0.00;;;;;18.05;84.59;100696.34;5092442;27;45345;-55
2023/09/20 05:16:03;;;;;;;;;1.00;1.00;;;;;18.05;83.53;100696.34;5069807;27;45503;-57
2023/09/20 05:18:32;;;;;;;;;0.00;0.00;;;;;18.06;84.50;100696.22;5092810;27;46142;-58
2023/09/20 05:20:58;;;;;;;;;1.00;0.67;;;;;18.07;85.10;100691.69;5072773;27;45640;-56
2023/09/20 05:23:23;;;;;;;;;1.33;1.00;;;;;18.06;83.82;100695.38;5081592;27;45413;-56
2023/09/20 05:25:50;;;;;;;;;0.67;0.67;;;;;18.07;84.48;100699.75;5082022;27;45331;-56
2023/09/20 05:28:15;;;;;;;;;2.00;0.67;;;;;18.07;83.45;100695.25;5084863;27;46101;-56
2023/09/20 05:30:44;;;;;;;;;2.33;0.67;;;;;18.07;84.84;100694.38;5094283;27;72016;-57
2023/09/20 05:33:11;;;;;;;;;3.00;3.00;;;;;18.05;83.36;100693.66;5088941;27;45620;-56
2023/09/20 05:35:39;;;;;;;;;3.00;0.67;;;;;18.01;84.20;100687.69;5088213;27;45525;-58
2023/09/20 05:38:04;;;;;;;;;1.00;1.00;;;;;18.01;84.60;100685.81;5088077;27;47111;-56
2023/09/20 05:40:30;;;;;;;;;0.00;0.00;;;;;18.00;84.67;100686.84;5084130;27;45612;-56
2023/09/20 05:42:56;;;;;;;;;1.00;1.00;;;;;17.99;84.04;100701.25;5095342;27;45442;-55
2023/09/20 05:45:23;;;;;;;;;1.00;1.00;;;;;17.99;83.93;100697.69;5087336;27;48304;-56
2023/09/20 05:47:49;;;;;;;;;1.00;1.00;;;;;17.98;83.83;100694.16;5094769;27;47069;-57
2023/09/20 05:50:15;;;;;;;;;0.33;0.33;;;;;18.00;84.14;100707.50;5097264;27;47952;-57
2023/09/20 05:52:42;;;;;;;;;0.00;0.00;;;;;17.97;85.07;100687.06;5086323;27;45623;-57
2023/09/20 05:55:13;;;;;;;;;1.00;1.00;;;;;17.96;84.75;100679.13;5097233;27;45492;-57
2023/09/20 05:57:41;;;;;;;;;1.00;1.00;;;;;17.95;84.89;100675.59;5090732;27;45565;-57
2023/09/20 06:00:11;;;;;;;;;2.00;0.33;;;;;17.97;84.60;100664.69;5070456;27;45291;-57
2023/09/20 06:02:37;;;;;;;;;1.00;1.00;;;;;17.97;84.83;100657.47;5095559;27;45341;-58
2023/09/20 06:05:02;;;;;;;;;1.67;0.67;;;;;17.97;85.28;100659.31;5094905;27;46131;-57
2023/09/20 06:07:27;;;;;;;;;1.00;1.00;;;;;17.95;84.89;100659.44;5094071;27;45853;-57
2023/09/20 06:09:53;;;;;;;;;1.00;1.00;;;;;17.97;84.39;100659.31;5089126;27;67284;-56
2023/09/20 06:12:19;;;;;;;;;1.67;1.67;;;;;18.01;85.22;100655.38;5094943;27;45526;-57
2023/09/20 06:14:45;;;;;;;;;0.00;0.00;;;;;18.09;84.26;100657.44;5088989;27;61636;-57
2023/09/20 06:17:10;;;;;;;;;1.00;0.00;;;;;18.18;84.02;100662.03;5087224;27;45682;-57
2023/09/20 06:19:37;;;;;;;;;1.33;1.33;;;;;18.24;84.65;100657.97;5092132;27;53810;-57
2023/09/20 06:22:03;;;;;;;;;1.67;1.67;;;;;18.27;83.96;100665.81;5091071;27;45591;-57
2023/09/20 06:24:28;;;;;;;;;0.33;0.00;;;;;18.33;83.56;100665.28;5090695;27;45454;-57
2023/09/20 06:26:54;;;;;;;;;3.67;0.00;;;;;18.41;82.86;100673.56;5089422;27;57515;-57
2023/09/20 06:29:19;;;;;;;;;0.33;0.33;;;;;18.44;83.48;100677.81;5093982;27;46129;-57
2023/09/20 06:31:45;;;;;;;;;1.00;1.00;;;;;18.46;82.47;100668.63;5081718;27;45389;-57
2023/09/20 06:34:14;;;;;;;;;1.00;1.00;;;;;18.55;82.30;100672.38;5094328;27;45673;-56
2023/09/20 06:36:40;;;;;;;;;2.67;1.00;;;;;18.64;82.39;100673.41;5098240;27;46824;-57
2023/09/20 06:39:08;;;;;;;;;1.00;0.33;;;;;18.71;81.56;100671.91;5096457;27;71186;-57
2023/09/20 06:41:33;;;;;;;;;1.00;1.00;;;;;18.76;81.25;100663.41;5089825;27;45390;-57
2023/09/20 06:43:58;;;;;;;;;1.00;1.00;;;;;18.82;81.16;100677.19;5089533;27;45523;-57
2023/09/20 06:46:24;;;;;;;;;0.67;0.67;;;;;18.91;80.82;100675.59;5083436;27;71596;-57
2023/09/20 06:48:49;;;;;;;;;3.67;2.67;;;;;18.95;81.04;100679.72;5053239;27;45516;-56
2023/09/20 06:51:17;;;;;;;;;3.00;3.00;;;;;18.96;80.73;100676.03;5066366;27;45328;-57
2023/09/20 06:53:42;;;;;;;;;1.67;1.67;;;;;18.94;80.40;100678.03;5080027;27;45376;-57
2023/09/20 06:56:08;;;;;;;;;1.00;1.00;;;;;18.93;79.57;100679.00;5094517;27;46288;-57
2023/09/20 06:58:34;;;;;;;;;2.00;2.00;;;;;18.96;80.06;100675.19;5087569;27;66225;-56
2023/09/20 07:00:59;;;;;;;;;1.00;1.00;;;;;19.06;79.78;100677.91;5083042;27;45528;-57
2023/09/20 07:03:25;;;;;;;;;1.00;1.00;;;;;19.14;79.74;100672.72;5073518;27;45411;-57
2023/09/20 07:05:51;;;;;;;;;1.00;1.00;;;;;19.31;78.93;100660.44;5087453;27;45473;-57
2023/09/20 07:08:18;;;;;;;;;1.67;1.00;;;;;19.48;78.33;100669.72;5095045;27;45274;-58
2023/09/20 07:10:45;;;;;;;;;1.67;1.67;;;;;19.60;77.33;100667.75;5079623;27;45335;-57
2023/09/20 07:13:11;;;;;;;;;1.67;1.00;;;;;19.67;76.93;100669.75;5088721;27;45375;-57
2023/09/20 07:15:36;;;;;;;;;1.33;1.33;;;;;19.74;76.58;100672.75;5089313;27;45393;-57
2023/09/20 07:18:11;;;;;;;;;1.00;1.00;;;;;19.81;76.22;100665.81;5087913;27;45533;-57
2023/09/20 07:20:41;;;;;;;;;0.00;0.00;;;;;19.90;75.60;100666.81;5090415;27;45342;-57
2023/09/20 07:23:12;;;;;;;;;2.00;1.00;;;;;19.99;75.85;100659.72;5073700;28;45458;-60
2023/09/20 07:25:38;;;;;;;;;1.67;1.33;;;;;20.12;75.00;100663.00;5089573;27;47120;-59
2023/09/20 07:28:04;;;;;;;;;0.67;0.33;;;;;20.09;74.23;100665.13;5097397;27;45374;-61
2023/09/20 07:30:39;;;;;;;;;1.00;1.00;;;;;20.09;74.06;100673.22;5087439;27;45578;-61
2023/09/20 07:33:06;;;;;;;;;1.67;1.00;;;;;20.12;73.82;100659.44;5078897;27;45516;-62
2023/09/20 07:35:38;;;;;;;;;1.00;1.00;;;;;20.17;74.38;100660.72;5086123;27;46212;-61
2023/09/20 07:38:18;;;;;;;;;1.67;1.67;;;;;20.09;73.52;100662.41;5092562;27;45318;-61
2023/09/20 07:40:45;;;;;;;;;1.00;1.00;;;;;19.98;73.94;100652.63;5092464;27;45630;-57
2023/09/20 07:43:15;;;;;;;;;1.00;1.00;;;;;19.95;74.44;100663.72;5069249;28;45521;-57
2023/09/20 07:45:41;;;;;;;;;1.00;1.00;;;;;19.93;74.49;100658.47;5085222;27;45953;-57
2023/09/20 07:48:13;;;;;;;;;1.67;1.67;;;;;19.89;74.21;100653.47;5084991;27;45386;-57
2023/09/20 07:50:49;;;;;;;;;0.33;0.33;;;;;19.84;74.81;100645.78;5087624;27;45371;-57
2023/09/20 07:53:16;;;;;;;;;1.00;1.00;;;;;19.85;74.43;100652.91;5087995;27;45414;-57
2023/09/20 07:55:44;;;;;;;;;1.00;1.00;;;;;19.93;74.98;100653.06;5089131;27;46532;-57
2023/09/20 07:58:15;;;;;;;;;1.00;1.00;;;;;19.93;74.69;100649.50;5092922;27;45368;-57
2023/09/20 08:00:45;;;;;;;;;2.67;1.00;;;;;20.00;74.57;100653.34;5089732;27;45531;-57
2023/09/20 08:03:14;;;;;;;;;1.00;1.00;;;;;20.03;74.38;100653.06;5091891;27;45331;-57
2023/09/20 08:05:41;;;;;;;;;2.00;0.33;;;;;19.99;73.81;100659.72;5090036;27;46000;-58
2023/09/20 08:08:10;;;;;;;;;9.00;8.33;;;;;19.94;74.23;100645.81;5091318;27;45463;-57
2023/09/20 08:10:36;;;;;;;;;9.33;9.33;;;;;20.03;74.47;100652.22;5083739;27;45509;-57
2023/09/20 08:13:03;;;;;;;;;6.00;5.00;;;;;20.05;74.13;100648.38;5085952;27;45413;-57
2023/09/20 08:15:29;;;;;;;;;3.67;2.33;;;;;20.17;73.67;100643.69;5080361;27;46052;-57
2023/09/20 08:20:40;;;;;;;;;17.33;16.33;;;;;20.74;72.31;100635.66;5088812;27;45485;-57
2023/09/20 09:01:33;;;;;;;;;19.33;15.33;;;;;22.45;63.00;100652.25;5083030;27;45438;-58
2023/09/20 09:04:00;;;;;;;;;3.00;3.00;;;;;22.52;62.70;100642.47;5090910;27;45304;-58
2023/09/20 09:06:26;;;;;;;;;24.67;24.67;;;;;22.80;63.19;100645.00;5092809;27;45466;-58
2023/09/20 09:08:51;;;;;;;;;19.67;19.33;;;;;23.41;62.27;100642.28;5076328;27;73017;-58
2023/09/20 09:11:17;;;;;;;;;7.00;4.33;;;;;23.88;60.76;100640.84;5091798;27;45215;-58
2023/09/20 09:13:43;;;;;;;;;7.33;6.00;;;;;24.07;60.10;100628.84;5070170;27;46644;-58
2023/09/20 09:16:08;;;;;;;;;11.67;9.67;;;;;24.28;57.10;100633.78;5090998;27;45497;-58
2023/09/20 09:18:33;;;;;;;;;3.00;3.00;;;;;24.80;59.71;100627.09;5086858;27;46177;-57
2023/09/20 09:20:59;;;;;;;;;2.33;2.33;;;;;26.87;52.08;100627.41;5081011;27;53236;-58
2023/09/20 09:23:33;;;;;;;;;2.00;2.00;;;;;28.05;46.28;100597.28;5085796;27;45579;-59
2023/09/20 09:25:58;;;;;;;;;2.00;2.00;;;;;29.06;43.27;100606.19;5062887;27;45973;-59
2023/09/20 09:28:25;;;;;;;;;5.00;5.00;;;;;29.70;45.30;100602.22;5093431;27;74076;-59
2023/09/20 09:30:52;;;;;;;;;7.00;5.67;;;;;30.04;43.72;100588.56;5060636;27;45695;-59
2023/09/20 09:33:17;;;;;;;;;5.75;5.75;;;;;30.25;44.77;100583.94;5086955;27;45599;-59
2023/09/20 09:35:45;;;;;;;;;71.00;60.75;;;;;30.81;44.24;100583.41;5082440;27;69598;-57
2023/09/20 09:38:12;;;;;;;;;1.00;1.00;;;;;30.50;39.56;100582.22;5089157;27;46593;-57
2023/09/20 09:40:55;;;;;;;;;5.00;5.00;;;;;30.41;39.11;100580.72;5091882;27;45255;-57
2023/09/20 09:43:23;;;;;;;;;2.00;2.00;;;;;30.84;39.07;100568.41;5084058;27;45303;-57
2023/09/20 09:45:49;;;;;;;;;5.75;5.75;;;;;30.87;37.53;100586.34;5090146;27;45396;-57
2023/09/20 09:48:19;;;;;;;;;1.25;1.25;;;;;30.81;37.99;100577.94;5088098;27;47070;-57
2023/09/20 09:50:45;;;;;;;;;2.75;2.00;;;;;30.62;38.11;100576.09;5088167;27;45533;-57
2023/09/20 09:53:13;;;;;;;;;3.00;3.00;;;;;30.39;41.99;100569.16;5095824;27;45469;-57
2023/09/20 09:55:38;;;;;;;;;0.75;0.75;;;;;30.47;39.17;100577.19;5078618;27;45415;-57
2023/09/20 09:58:04;;;;;;;;;1.50;1.50;;;;;29.22;39.73;100572.13;5079685;27;45381;-57
2023/09/20 10:00:31;;;;;;;;;2.50;2.50;;;;;28.94;41.88;100566.75;5093935;27;45716;-57
2023/09/20 10:03:01;;;;;;;;;1.25;1.00;;;;;29.44;39.56;100559.19;5078716;27;45417;-60
2023/09/20 10:05:27;;;;;;;;;3.00;1.25;;;;;29.47;37.90;100544.22;5074471;27;46052;-60
2023/09/20 10:08:01;;;;;;;;;3.25;2.00;;;;;30.49;37.52;100544.91;5072563;27;46449;-57
2023/09/20 10:10:27;;;;;;;;;1.00;1.00;;;;;30.48;35.15;100561.53;5094608;27;45411;-59
2023/09/20 10:12:53;;;;;;;;;1.50;1.50;;;;;30.39;35.08;100554.56;5074715;27;45455;-60
2023/09/20 10:15:19;;;;;;;;;2.00;2.00;;;;;30.04;35.80;100552.94;5072270;27;45600;-58
2023/09/20 10:17:45;;;;;;;;;8.00;8.00;;;;;29.87;37.86;100555.25;5084103;27;46109;-58
2023/09/20 10:20:15;;;;;;;;;4.00;3.00;;;;;30.06;37.59;100537.09;5090821;27;45756;-58
2023/09/20 10:22:41;;;;;;;;;2.25;2.00;;;;;30.16;37.80;100544.91;5093836;27;45412;-58
2023/09/20 10:25:28;;;;;;;;;2.00;2.00;;;;;30.20;38.17;100526.97;5085494;27;45514;-58
2023/09/20 10:27:53;;;;;;;;;1.50;1.50;;;;;30.14;38.31;100528.69;5090263;27;47036;-58
2023/09/20 10:30:21;;;;;;;;;1.00;1.00;;;;;29.74;36.73;100527.78;5086495;27;45549;-58
2023/09/20 10:32:53;;;;;;;;;1.25;1.25;;;;;30.10;37.28;100521.91;5088998;27;45323;-58
2023/09/20 10:35:31;;;;;;;;;20.67;20.00;;;;;30.78;38.10;100523.47;5085466;27;45525;-58
2023/09/20 10:37:56;;;;;;;;;0.50;0.00;;;;;31.54;34.83;100536.59;5086667;27;46377;-58
2023/09/20 10:40:22;;;;;;;;;13.50;11.75;;;;;31.68;35.92;100521.75;5073518;27;45688;-59
2023/09/20 10:42:51;;;;;;;;;1.75;1.75;;;;;31.57;34.02;100512.28;5069043;27;45533;-58
2023/09/20 10:45:17;;;;;;;;;2.00;2.00;;;;;31.02;35.31;100510.06;5086964;27;45343;-58
2023/09/20 10:47:48;;;;;;;;;3.25;2.00;;;;;30.76;33.39;100509.13;5087504;27;59650;-61
2023/09/20 10:50:48;;;;;;;;;1.00;1.00;;;;;30.22;33.79;100505.69;5082846;27;45466;-58
2023/09/20 10:53:14;;;;;;;;;1.00;1.00;;;;;30.12;34.36;100508.00;5081601;27;45718;-59
2023/09/20 10:55:40;;;;;;;;;1.00;1.00;;;;;29.81;33.97;100487.56;5082058;27;45505;-61
2023/09/20 10:58:07;;;;;;;;;2.00;1.00;;;;;29.51;33.42;100497.00;5083593;27;47085;-58
2023/09/20 11:00:34;;;;;;;;;1.00;1.00;;;;;29.59;35.09;100495.13;5086674;27;45387;-57
2023/09/20 11:03:04;;;;;;;;;2.00;1.00;;;;;29.93;35.64;100496.84;5086503;27;45818;-57
2023/09/20 11:05:29;;;;;;;;;0.75;0.25;;;;;30.09;34.27;100491.97;5087011;27;45895;-56
2023/09/20 11:07:55;;;;;;;;;2.00;1.50;;;;;30.12;35.67;100497.88;5092544;27;73943;-57
2023/09/20 11:10:21;;;;;;;;;1.75;1.00;;;;;30.11;34.43;100501.66;5071793;27;45427;-56
2023/09/20 11:12:46;;;;;;;;;2.50;2.00;;;;;30.27;35.49;100491.31;5076062;27;45369;-57
2023/09/20 11:15:15;;;;;;;;;2.00;2.00;;;;;30.33;35.03;100488.53;5089832;27;46892;-57
2023/09/20 11:17:41;;;;;;;;;1.00;0.25;;;;;30.26;34.01;100484.13;5079779;27;46178;-57
2023/09/20 11:20:07;;;;;;;;;1.75;1.75;;;;;30.18;35.15;100480.56;5082572;27;45331;-60
2023/09/20 11:22:33;;;;;;;;;1.00;1.00;;;;;30.25;35.67;100480.56;5091691;27;45441;-61
2023/09/20 11:25:00;;;;;;;;;1.00;1.00;;;;;30.38;35.40;100479.69;5087475;27;45505;-56
2023/09/20 11:27:27;;;;;;;;;0.75;0.75;;;;;30.46;34.37;100479.47;5081182;27;46347;-60
2023/09/20 11:29:53;;;;;;;;;1.00;1.00;;;;;30.44;35.56;100475.22;5072171;27;45656;-60
2023/09/20 11:32:22;;;;;;;;;1.00;1.00;;;;;30.54;35.11;100478.38;5066845;27;45574;-60
2023/09/20 11:34:51;;;;;;;;;0.75;0.75;;;;;30.55;35.12;100463.63;5065397;27;45710;-58
2023/09/20 11:37:18;;;;;;;;;0.50;0.50;;;;;30.49;34.99;100470.81;5083617;27;45586;-62
2023/09/20 11:39:45;;;;;;;;;1.00;1.00;;;;;30.40;33.51;100461.09;5090462;27;45336;-60
2023/09/20 11:42:22;;;;;;;;;0.25;0.25;;;;;30.33;34.79;100461.13;5084052;27;45288;-63
2023/09/20 11:45:03;;;;;;;;;1.00;0.75;;;;;30.27;34.41;100461.13;5090270;27;45500;-55
2023/09/20 11:47:34;;;;;;;;;2.00;1.25;;;;;30.18;35.16;100453.16;5086159;27;46318;-56
2023/09/20 11:50:00;;;;;;;;;1.00;1.00;;;;;29.93;34.55;100438.44;5085000;27;45970;-62
2023/09/20 11:52:26;;;;;;;;;1.25;0.75;;;;;29.75;35.80;100444.53;5086639;27;45516;-61
2023/09/20 11:54:56;;;;;;;;;0.00;0.00;;;;;29.66;35.08;100439.28;5084311;27;45444;-56
2023/09/20 11:57:24;;;;;;;;;1.75;1.75;;;;;29.40;35.86;100442.88;5081768;27;46327;-61
2023/09/20 11:59:50;;;;;;;;;0.00;0.00;;;;;29.43;36.52;100433.41;5086880;27;45696;-62
2023/09/20 12:02:16;;;;;;;;;1.50;1.00;;;;;29.45;36.35;100437.63;5059433;27;45617;-59
2023/09/20 12:04:43;;;;;;;;;1.00;1.00;;;;;29.07;35.65;100440.06;5093208;27;45412;-56